Time;durP1;ratioP1;P1;durP2;ratioP2;P2;SDS_P1;SDS_P2;PMS_P1;PMS_P2;Temp;Humidity;BMP_temperature;BMP_pressure;BME280_temperature;BME280_humidity;BME280_pressure;Samples;Min_cycle;Max_cycle;Signal;HPM_P1;HPM_P2
2023/06/02 00:01:19;;;;;;;7.55;1.60;;;11.20;83.40;;;;;;5111957;28;20031;-56
2023/06/02 00:03:45;;;;;;;6.53;1.73;;;11.10;83.20;;;;;;5089526;28;20084;-53
2023/06/02 00:06:14;;;;;;;7.55;1.83;;;11.10;83.50;;;;;;5106320;28;20027;-53
2023/06/02 00:08:40;;;;;;;4.13;1.60;;;11.00;84.30;;;;;;5089840;28;20040;-56
2023/06/02 00:11:08;;;;;;;5.57;1.92;;;11.00;85.10;;;;;;5111504;28;20626;-56
2023/06/02 00:13:34;;;;;;;3.47;1.50;;;10.90;85.60;;;;;;5089978;28;20515;-55
2023/06/02 00:16:00;;;;;;;3.05;1.48;;;10.90;86.50;;;;;;5111223;28;20039;-52
2023/06/02 00:18:26;;;;;;;9.02;1.83;;;10.80;87.70;;;;;;5090128;28;20642;-55
2023/06/02 00:20:52;;;;;;;7.28;1.80;;;10.70;88.40;;;;;;5110792;28;20060;-56
2023/06/02 00:23:18;;;;;;;6.57;2.10;;;10.70;88.40;;;;;;5089909;28;20408;-54
2023/06/02 00:25:44;;;;;;;8.48;2.33;;;10.70;89.00;;;;;;5111099;28;20047;-54
2023/06/02 00:28:09;;;;;;;8.43;1.85;;;10.60;89.90;;;;;;5096890;28;20100;-55
2023/06/02 00:30:35;;;;;;;5.53;1.77;;;10.60;90.40;;;;;;5111641;28;20132;-55
2023/06/02 00:33:01;;;;;;;5.72;1.90;;;10.60;90.50;;;;;;5111617;28;20068;-56
2023/06/02 00:35:27;;;;;;;6.55;1.98;;;10.60;90.90;;;;;;5091604;28;20434;-55
2023/06/02 00:37:53;;;;;;;8.43;2.00;;;10.50;91.70;;;;;;5089443;28;20032;-52
2023/06/02 00:40:19;;;;;;;6.10;1.77;;;10.50;91.10;;;;;;5110732;28;20030;-52
2023/06/02 00:42:44;;;;;;;9.95;1.90;;;10.50;91.20;;;;;;5094640;28;20039;-54
2023/06/02 00:45:10;;;;;;;8.27;1.85;;;10.40;91.50;;;;;;5111341;28;20024;-51
2023/06/02 00:47:36;;;;;;;8.48;1.90;;;10.40;92.60;;;;;;5095319;28;20097;-56
2023/06/02 00:50:02;;;;;;;7.70;1.63;;;10.30;92.60;;;;;;5111246;28;20074;-55
2023/06/02 00:52:28;;;;;;;6.68;2.10;;;10.30;92.70;;;;;;5089561;28;20031;-54
2023/06/02 00:54:55;;;;;;;5.45;2.03;;;10.30;93.00;;;;;;5110289;28;20376;-52
2023/06/02 00:57:21;;;;;;;4.65;1.75;;;10.20;93.70;;;;;;5100645;28;20057;-57
2023/06/02 00:59:47;;;;;;;11.65;1.77;;;10.20;93.80;;;;;;5091224;28;20024;-53
2023/06/02 01:02:13;;;;;;;5.80;1.80;;;10.20;93.80;;;;;;5108065;28;20046;-56
2023/06/02 01:04:40;;;;;;;7.50;1.85;;;10.10;93.50;;;;;;5093140;28;20085;-54
2023/06/02 01:07:07;;;;;;;4.43;1.85;;;10.10;94.20;;;;;;5106149;28;20077;-54
2023/06/02 01:09:34;;;;;;;8.30;2.05;;;10.10;94.60;;;;;;5090640;28;20047;-54
2023/06/02 01:11:59;;;;;;;5.18;2.03;;;10.00;95.20;;;;;;5108167;28;20441;-53
2023/06/02 01:14:25;;;;;;;5.72;2.00;;;10.00;95.30;;;;;;5089611;28;20523;-55
2023/06/02 01:16:51;;;;;;;8.40;2.08;;;9.90;94.90;;;;;;5107607;28;20410;-54
2023/06/02 01:19:21;;;;;;;6.85;2.03;;;9.90;96.00;;;;;;5110763;28;20024;-55
2023/06/02 01:21:57;;;;;;;8.30;2.20;;;9.90;95.20;;;;;;5093003;28;20027;-52
2023/06/02 01:24:34;;;;;;;7.68;2.30;;;9.80;95.00;;;;;;5110550;28;20019;-57
2023/06/02 01:27:00;;;;;;;3.67;1.90;;;9.80;95.30;;;;;;5085146;28;20036;-55
2023/06/02 01:29:26;;;;;;;4.50;1.60;;;9.70;96.00;;;;;;5090523;28;20048;-53
2023/06/02 01:31:55;;;;;;;8.43;2.55;;;9.70;97.80;;;;;;5107664;28;20213;-56
2023/06/02 01:34:38;;;;;;;6.13;2.03;;;9.70;97.20;;;;;;5109524;28;20019;-55
2023/06/02 01:37:05;;;;;;;4.22;2.25;;;9.60;97.60;;;;;;5085427;28;20031;-55
2023/06/02 01:39:30;;;;;;;9.32;2.45;;;9.60;97.80;;;;;;5090014;28;20031;-55
2023/06/02 01:42:01;;;;;;;8.45;2.40;;;9.60;99.70;;;;;;5105416;28;20031;-54
2023/06/02 01:44:27;;;;;;;8.07;2.47;;;9.50;99.90;;;;;;5090168;28;20028;-55
2023/06/02 01:46:53;;;;;;;9.00;2.55;;;9.50;99.90;;;;;;5109357;28;20032;-55
2023/06/02 01:49:19;;;;;;;5.63;2.30;;;9.50;99.90;;;;;;5108300;28;20403;-56
2023/06/02 01:51:45;;;;;;;6.38;2.35;;;9.50;99.90;;;;;;5090246;28;20131;-56
2023/06/02 01:54:11;;;;;;;6.20;2.58;;;9.50;99.90;;;;;;5087208;28;20051;-56
2023/06/02 01:56:36;;;;;;;10.80;2.38;;;9.50;99.90;;;;;;5109470;28;20450;-56
2023/06/02 01:59:02;;;;;;;7.28;2.15;;;9.50;99.90;;;;;;5088412;28;20122;-56
2023/06/02 02:01:28;;;;;;;9.05;3.33;;;9.40;99.90;;;;;;5109216;28;20491;-55
2023/06/02 02:03:54;;;;;;;8.32;1.90;;;9.40;99.90;;;;;;5088239;28;20107;-55
2023/06/02 02:06:29;;;;;;;8.30;2.30;;;9.40;99.90;;;;;;5106464;28;20452;-56
2023/06/02 02:08:55;;;;;;;11.07;2.35;;;9.40;99.90;;;;;;5087571;28;20035;-55
2023/06/02 02:11:21;;;;;;;11.40;2.90;;;9.40;99.90;;;;;;5109216;28;20031;-58
2023/06/02 02:13:48;;;;;;;7.50;1.95;;;9.40;99.90;;;;;;5087899;28;20119;-55
2023/06/02 02:16:13;;;;;;;7.82;2.45;;;9.40;99.90;;;;;;5109240;28;20091;-56
2023/06/02 02:18:39;;;;;;;7.45;2.33;;;9.50;99.90;;;;;;5088128;28;20158;-54
2023/06/02 02:21:04;;;;;;;5.22;1.90;;;9.50;99.90;;;;;;5108992;28;20024;-57
2023/06/02 02:23:30;;;;;;;9.95;2.20;;;9.50;99.90;;;;;;5087804;28;20031;-55
2023/06/02 02:25:55;;;;;;;11.38;2.63;;;9.50;99.90;;;;;;5108857;28;20031;-55
2023/06/02 02:28:21;;;;;;;13.52;2.45;;;9.40;99.90;;;;;;5086296;28;20040;-57
2023/06/02 02:30:46;;;;;;;10.75;2.65;;;9.40;99.90;;;;;;5108814;28;20059;-54
2023/06/02 02:33:12;;;;;;;8.57;2.67;;;9.40;99.90;;;;;;5098379;28;20092;-54
2023/06/02 02:35:37;;;;;;;6.38;2.30;;;9.40;99.90;;;;;;5087643;28;20445;-55
2023/06/02 02:38:03;;;;;;;8.35;2.58;;;9.40;99.90;;;;;;5108709;28;20040;-57
2023/06/02 02:40:28;;;;;;;6.90;2.45;;;9.40;99.90;;;;;;5087580;28;20065;-53
2023/06/02 02:42:54;;;;;;;8.02;2.25;;;9.40;99.90;;;;;;5106598;28;20028;-52
2023/06/02 02:45:20;;;;;;;8.38;2.60;;;9.40;99.90;;;;;;5091957;28;20495;-55
2023/06/02 02:47:45;;;;;;;11.88;3.17;;;9.40;99.90;;;;;;5110953;28;20076;-56
2023/06/02 02:50:11;;;;;;;9.40;2.80;;;9.30;99.90;;;;;;5113572;28;20107;-56
2023/06/02 02:52:36;;;;;;;11.88;2.90;;;9.30;99.90;;;;;;5091939;28;20039;-55
2023/06/02 02:55:02;;;;;;;9.18;2.47;;;9.30;99.90;;;;;;5093178;28;20118;-53
2023/06/02 02:57:28;;;;;;;8.07;2.25;;;9.30;99.90;;;;;;5110768;28;20100;-57
2023/06/02 02:59:55;;;;;;;4.75;2.38;;;9.30;99.90;;;;;;5113633;28;20016;-56
2023/06/02 03:02:21;;;;;;;7.68;2.30;;;9.30;99.90;;;;;;5095047;28;20027;-52
2023/06/02 03:04:46;;;;;;;5.43;2.22;;;9.30;99.90;;;;;;5110193;28;20012;-54
2023/06/02 03:07:12;;;;;;;9.93;2.72;;;9.30;99.90;;;;;;5085797;28;20059;-56
2023/06/02 03:09:37;;;;;;;10.35;2.58;;;9.30;99.90;;;;;;5092908;28;20040;-54
2023/06/02 03:12:03;;;;;;;9.20;2.78;;;9.30;99.90;;;;;;5110573;28;20024;-56
2023/06/02 03:14:29;;;;;;;6.55;2.33;;;9.40;99.90;;;;;;5113019;28;20033;-53
2023/06/02 03:16:56;;;;;;;10.77;2.60;;;9.40;99.90;;;;;;5093291;28;20048;-56
2023/06/02 03:19:24;;;;;;;8.23;2.58;;;9.50;99.90;;;;;;5092995;28;20055;-56
2023/06/02 03:21:51;;;;;;;12.82;3.15;;;9.50;99.90;;;;;;5112283;28;20031;-55
2023/06/02 03:24:18;;;;;;;9.18;2.85;;;9.50;99.90;;;;;;5091301;28;20020;-55
2023/06/02 03:26:45;;;;;;;8.63;2.88;;;9.60;99.90;;;;;;5112374;28;20511;-56
2023/06/02 03:29:11;;;;;;;9.13;2.83;;;9.60;99.90;;;;;;5090935;28;20040;-55
2023/06/02 03:31:37;;;;;;;9.73;2.95;;;9.70;99.90;;;;;;5112411;28;20028;-55
2023/06/02 03:34:04;;;;;;;9.77;2.83;;;9.70;99.90;;;;;;5091109;28;20040;-55
2023/06/02 03:36:34;;;;;;;10.90;3.08;;;9.80;99.90;;;;;;5111989;28;20409;-52
2023/06/02 03:39:00;;;;;;;6.90;2.60;;;9.90;99.90;;;;;;5070974;28;20064;-59
2023/06/02 03:41:26;;;;;;;10.68;2.60;;;10.20;99.90;;;;;;5112742;28;20442;-57
2023/06/02 03:43:51;;;;;;;9.70;2.67;;;10.70;99.90;;;;;;5095004;28;20038;-57
2023/06/02 03:46:17;;;;;;;11.73;2.63;;;11.10;99.90;;;;;;5112887;28;20027;-56
2023/06/02 03:48:42;;;;;;;8.00;2.80;;;11.50;99.90;;;;;;5090602;28;20036;-54
2023/06/02 03:51:08;;;;;;;8.02;2.55;;;12.00;99.90;;;;;;5111178;28;20095;-57
2023/06/02 03:53:33;;;;;;;11.65;2.95;;;12.50;99.20;;;;;;5090717;28;20563;-56
2023/06/02 03:55:59;;;;;;;6.00;2.30;;;12.90;97.00;;;;;;5108874;28;20026;-54
2023/06/02 03:58:27;;;;;;;10.75;2.85;;;13.40;95.20;;;;;;5096406;28;20149;-56
2023/06/02 04:00:54;;;;;;;10.20;2.75;;;13.70;93.90;;;;;;5111501;28;20038;-55
2023/06/02 04:03:21;;;;;;;10.40;2.42;;;14.20;91.90;;;;;;5100963;28;20027;-57
2023/06/02 04:05:47;;;;;;;6.63;2.80;;;14.70;90.10;;;;;;5088544;28;20035;-57
2023/06/02 04:08:14;;;;;;;8.50;2.83;;;15.30;87.80;;;;;;5109490;28;20031;-56
2023/06/02 04:10:46;;;;;;;7.90;2.45;;;15.80;83.00;;;;;;5096266;28;20486;-56
2023/06/02 04:13:13;;;;;;;5.70;2.08;;;16.40;81.70;;;;;;5098822;28;20114;-57
2023/06/02 04:15:38;;;;;;;6.65;2.22;;;16.90;76.60;;;;;;5109020;28;20032;-57
2023/06/02 04:18:04;;;;;;;6.30;2.20;;;17.30;72.40;;;;;;5100395;28;20487;-54
2023/06/02 04:20:30;;;;;;;6.78;2.28;;;17.80;71.70;;;;;;5108994;28;20028;-56
2023/06/02 04:26:17;;;;;;;9.20;2.53;;;18.60;59.50;;;;;;5089625;28;20711;-53
2023/06/02 04:32:05;;;;;;;10.68;2.60;;;17.80;62.20;;;;;;5070979;28;20094;-56
2023/06/02 04:34:31;;;;;;;9.23;2.50;;;17.30;64.50;;;;;;5090232;28;20046;-56
2023/06/02 04:36:57;;;;;;;9.52;2.45;;;17.00;65.00;;;;;;5110531;28;20111;-57
2023/06/02 04:39:23;;;;;;;9.45;2.88;;;16.70;65.50;;;;;;5085265;28;20055;-56
2023/06/02 04:41:49;;;;;;;13.65;2.55;;;16.70;65.70;;;;;;5110286;28;20491;-57
2023/06/02 04:44:16;;;;;;;7.20;2.50;;;16.80;65.30;;;;;;5089698;28;20037;-58
2023/06/02 04:46:42;;;;;;;6.78;2.13;;;16.60;64.20;;;;;;5110781;28;20055;-56
2023/06/02 04:49:09;;;;;;;8.95;2.50;;;16.50;63.50;;;;;;5087040;28;20094;-57
2023/06/02 04:51:35;;;;;;;7.43;2.58;;;16.20;63.80;;;;;;5091075;28;20108;-57
2023/06/02 04:54:01;;;;;;;8.27;2.55;;;16.00;64.50;;;;;;5108588;28;20011;-57
2023/06/02 04:56:27;;;;;;;9.65;2.33;;;15.90;64.80;;;;;;5101128;28;20076;-56
2023/06/02 04:58:53;;;;;;;13.25;3.00;;;15.90;65.10;;;;;;5092257;28;20085;-55
2023/06/02 05:01:18;;;;;;;7.55;2.38;;;15.80;65.30;;;;;;5101822;28;20032;-56
2023/06/02 05:03:44;;;;;;;10.55;2.53;;;15.70;65.50;;;;;;5092152;28;20104;-56
2023/06/02 05:06:09;;;;;;;6.80;2.05;;;15.70;65.40;;;;;;5108445;28;20023;-58
2023/06/02 05:08:35;;;;;;;5.82;2.40;;;15.70;66.00;;;;;;5086360;28;20047;-57
2023/06/02 05:11:02;;;;;;;9.98;2.67;;;16.40;65.40;;;;;;5094840;28;20477;-57
2023/06/02 05:13:28;;;;;;;10.38;2.95;;;16.50;63.60;;;;;;5083611;28;20024;-56
2023/06/02 05:15:55;;;;;;;8.65;2.53;;;16.40;61.30;;;;;;5107277;28;20114;-55
2023/06/02 05:18:21;;;;;;;9.02;2.67;;;16.20;63.40;;;;;;5093936;28;20016;-57
2023/06/02 05:20:46;;;;;;;8.88;2.35;;;16.10;64.00;;;;;;5091855;28;20031;-57
2023/06/02 05:23:12;;;;;;;9.23;2.53;;;16.10;64.50;;;;;;5108665;28;20019;-58
2023/06/02 05:25:39;;;;;;;8.05;2.33;;;15.90;64.00;;;;;;5110264;28;20395;-57
2023/06/02 05:28:04;;;;;;;15.02;3.17;;;15.90;65.20;;;;;;5093111;28;20404;-53
2023/06/02 05:30:30;;;;;;;6.60;2.47;;;15.70;65.50;;;;;;5088505;28;20081;-55
2023/06/02 05:32:55;;;;;;;9.20;3.10;;;15.60;66.10;;;;;;5107387;28;20046;-55
2023/06/02 05:35:21;;;;;;;8.35;2.60;;;15.60;66.60;;;;;;5109874;28;20553;-55
2023/06/02 05:37:46;;;;;;;8.00;2.72;;;15.50;67.20;;;;;;5090271;28;20085;-56
2023/06/02 05:40:12;;;;;;;8.55;2.30;;;15.40;68.20;;;;;;5088143;28;20040;-56
2023/06/02 05:42:38;;;;;;;11.27;2.70;;;15.30;68.60;;;;;;5109131;28;20403;-57
2023/06/02 05:45:05;;;;;;;10.63;2.83;;;15.30;69.00;;;;;;5086422;28;20035;-55
2023/06/02 05:47:31;;;;;;;8.65;2.50;;;15.20;69.30;;;;;;5087994;28;20391;-56
2023/06/02 05:49:57;;;;;;;8.60;2.42;;;15.20;69.80;;;;;;5108843;28;20020;-56
2023/06/02 05:52:22;;;;;;;9.25;2.70;;;15.10;70.00;;;;;;5088150;28;20029;-55
2023/06/02 05:54:48;;;;;;;11.05;2.60;;;15.00;70.10;;;;;;5108901;28;20098;-56
2023/06/02 05:57:13;;;;;;;8.90;2.63;;;14.90;71.20;;;;;;5087915;28;20044;-56
2023/06/02 05:59:39;;;;;;;7.53;2.78;;;14.70;72.00;;;;;;5106889;28;20320;-55
2023/06/02 06:02:06;;;;;;;5.70;1.88;;;14.70;72.90;;;;;;5109417;28;20030;-56
2023/06/02 06:04:32;;;;;;;8.93;2.58;;;14.70;73.40;;;;;;5091007;28;20040;-54
2023/06/02 06:06:58;;;;;;;8.07;2.75;;;14.80;73.20;;;;;;5109544;28;20591;-57
2023/06/02 06:09:24;;;;;;;9.93;3.05;;;14.90;73.00;;;;;;5092543;28;20028;-55
2023/06/02 06:11:50;;;;;;;6.80;2.47;;;14.90;72.40;;;;;;5109700;28;20076;-53
2023/06/02 06:14:15;;;;;;;10.43;2.58;;;15.10;72.30;;;;;;5091986;28;20045;-56
2023/06/02 06:16:41;;;;;;;14.65;3.10;;;15.20;71.60;;;;;;5109191;28;20104;-53
2023/06/02 06:19:07;;;;;;;6.00;2.17;;;15.40;71.20;;;;;;5090088;28;20028;-54
2023/06/02 06:21:32;;;;;;;9.55;2.42;;;15.60;70.60;;;;;;5107431;28;20062;-55
2023/06/02 06:23:58;;;;;;;12.27;2.58;;;15.60;70.20;;;;;;5109233;28;20243;-57
2023/06/02 06:26:23;;;;;;;5.95;2.20;;;15.60;70.30;;;;;;5107291;28;20467;-56
2023/06/02 06:28:49;;;;;;;11.70;2.70;;;15.70;70.50;;;;;;5089128;28;20476;-55
2023/06/02 06:31:15;;;;;;;12.02;3.13;;;15.70;70.50;;;;;;5087770;28;20051;-57
2023/06/02 06:33:41;;;;;;;14.27;3.33;;;15.80;70.50;;;;;;5108197;28;20023;-55
2023/06/02 06:36:07;;;;;;;15.55;2.88;;;15.50;70.60;;;;;;5087318;28;20089;-53
2023/06/02 06:38:32;;;;;;;8.32;3.08;;;15.40;72.30;;;;;;5090296;28;20064;-56
2023/06/02 06:40:58;;;;;;;7.65;2.42;;;15.40;72.30;;;;;;5108400;28;20478;-55
2023/06/02 06:43:23;;;;;;;8.88;2.90;;;15.40;72.30;;;;;;5087314;28;20038;-55
2023/06/02 06:45:49;;;;;;;10.10;2.88;;;15.40;72.20;;;;;;5108317;28;20403;-56
2023/06/02 06:48:14;;;;;;;10.32;2.55;;;15.30;72.60;;;;;;5087212;28;20032;-53
2023/06/02 06:50:40;;;;;;;7.80;2.97;;;15.30;73.50;;;;;;5108109;28;20027;-54
2023/06/02 06:53:07;;;;;;;9.40;3.20;;;15.40;73.30;;;;;;5087137;28;20056;-56
2023/06/02 06:55:33;;;;;;;8.23;2.63;;;15.60;72.80;;;;;;5108620;28;20387;-57
2023/06/02 06:57:59;;;;;;;10.65;2.90;;;15.80;71.90;;;;;;5087173;28;20021;-55
2023/06/02 07:00:24;;;;;;;7.97;2.97;;;15.90;72.00;;;;;;5099268;28;20028;-55
2023/06/02 07:02:51;;;;;;;12.25;4.68;;;15.90;72.10;;;;;;5106308;28;20031;-55
2023/06/02 07:05:17;;;;;;;15.20;6.85;;;15.90;71.60;;;;;;5093400;28;20364;-53
2023/06/02 07:07:43;;;;;;;18.73;8.50;;;15.90;71.30;;;;;;5096246;28;20039;-55
2023/06/02 07:10:10;;;;;;;15.02;7.85;;;15.70;72.40;;;;;;5088756;28;20534;-56
2023/06/02 07:12:36;;;;;;;14.30;7.38;;;15.50;72.60;;;;;;5106345;28;20073;-55
2023/06/02 07:15:02;;;;;;;15.55;6.85;;;15.20;74.20;;;;;;5088736;28;20170;-55
2023/06/02 07:17:28;;;;;;;9.35;7.57;;;15.10;75.60;;;;;;5106322;28;20136;-56
2023/06/02 07:19:54;;;;;;;15.65;7.47;;;15.20;76.50;;;;;;5109019;28;20428;-56
2023/06/02 07:22:20;;;;;;;17.50;8.75;;;15.10;76.20;;;;;;5093258;28;20585;-56
2023/06/02 07:24:46;;;;;;;12.50;6.65;;;15.00;77.60;;;;;;5108658;28;20111;-54
2023/06/02 07:27:12;;;;;;;15.70;7.75;;;15.10;77.90;;;;;;5092084;28;20127;-53
2023/06/02 07:29:37;;;;;;;11.57;7.05;;;15.30;77.00;;;;;;5106874;28;20101;-56
2023/06/02 07:32:03;;;;;;;15.05;7.70;;;15.50;75.90;;;;;;5109894;28;20376;-55
2023/06/02 07:34:29;;;;;;;14.35;7.18;;;15.70;74.80;;;;;;5094508;28;20040;-57
2023/06/02 07:36:54;;;;;;;10.95;6.07;;;15.80;73.70;;;;;;5112484;28;20023;-56
2023/06/02 07:39:20;;;;;;;15.00;7.00;;;16.10;73.00;;;;;;5091908;28;20089;-56
2023/06/02 07:41:45;;;;;;;11.88;6.63;;;16.00;71.90;;;;;;5112212;28;20062;-56
2023/06/02 07:44:11;;;;;;;12.88;7.00;;;16.00;70.60;;;;;;5091860;28;20065;-53
2023/06/02 07:46:36;;;;;;;16.08;7.07;;;16.00;70.70;;;;;;5112271;28;20060;-57
2023/06/02 07:49:02;;;;;;;20.85;8.65;;;15.90;71.80;;;;;;5090064;28;20053;-55
2023/06/02 07:51:27;;;;;;;15.82;9.80;;;15.70;71.70;;;;;;5112108;28;20019;-54
2023/06/02 07:53:53;;;;;;;16.13;9.38;;;15.40;74.60;;;;;;5092253;28;20034;-56
2023/06/02 07:56:18;;;;;;;11.85;8.00;;;15.40;76.20;;;;;;5090196;28;20035;-55
2023/06/02 07:58:47;;;;;;;13.32;7.30;;;15.60;75.80;;;;;;5111043;28;20445;-55
2023/06/02 08:01:13;;;;;;;11.05;7.55;;;16.10;73.50;;;;;;5094400;28;20476;-56
2023/06/02 08:03:40;;;;;;;12.20;6.50;;;16.50;70.90;;;;;;5112081;28;20016;-53
2023/06/02 08:06:05;;;;;;;9.60;6.20;;;16.60;69.80;;;;;;5087959;28;20027;-56
2023/06/02 08:08:31;;;;;;;11.52;6.63;;;16.70;67.40;;;;;;5109901;28;20035;-57
2023/06/02 08:10:57;;;;;;;10.90;6.03;;;16.40;68.10;;;;;;5091798;28;20396;-55
2023/06/02 08:13:23;;;;;;;9.52;5.57;;;16.30;69.20;;;;;;5095346;28;20103;-56
2023/06/02 08:15:48;;;;;;;14.65;7.03;;;16.50;68.30;;;;;;5110831;28;20106;-56
2023/06/02 08:18:14;;;;;;;8.40;5.95;;;16.70;65.30;;;;;;5089883;28;20031;-56
2023/06/02 08:20:43;;;;;;;6.00;4.68;;;17.40;65.10;;;;;;5110736;28;20534;-56
2023/06/02 08:23:08;;;;;;;8.65;4.32;;;18.80;58.90;;;;;;5100891;28;20452;-55
2023/06/02 08:25:37;;;;;;;5.20;3.58;;;19.70;47.70;;;;;;5091569;28;20111;-56
2023/06/02 08:28:05;;;;;;;5.25;3.70;;;19.80;52.60;;;;;;5108769;28;20534;-54
2023/06/02 08:30:35;;;;;;;6.10;3.72;;;19.60;51.70;;;;;;5089401;28;20097;-56
2023/06/02 08:33:02;;;;;;;7.53;3.80;;;18.90;50.20;;;;;;5090247;28;20112;-54
2023/06/02 08:35:29;;;;;;;4.30;3.75;;;18.60;53.00;;;;;;5110603;28;20040;-57
2023/06/02 08:37:55;;;;;;;6.95;3.83;;;18.50;50.40;;;;;;5089424;28;20024;-56
2023/06/02 08:40:25;;;;;;;5.35;4.10;;;18.20;50.60;;;;;;5110291;28;20016;-52
2023/06/02 08:42:51;;;;;;;3.85;3.00;;;18.20;51.20;;;;;;5087152;28;20479;-56
2023/06/02 08:45:20;;;;;;;3.75;3.28;;;18.40;50.10;;;;;;5110396;28;20035;-55
2023/06/02 08:47:54;;;;;;;4.50;2.72;;;18.70;42.90;;;;;;5088360;28;20142;-56
2023/06/02 08:50:23;;;;;;;3.67;2.50;;;18.80;39.00;;;;;;5110987;28;20020;-54
2023/06/02 08:52:50;;;;;;;3.30;2.42;;;18.90;38.00;;;;;;5090378;28;20051;-57
2023/06/02 08:55:16;;;;;;;4.60;2.13;;;19.20;32.70;;;;;;5111152;28;20081;-57
2023/06/02 08:57:42;;;;;;;2.78;2.15;;;19.40;28.90;;;;;;5089695;28;20036;-54
2023/06/02 09:00:08;;;;;;;3.22;2.40;;;20.00;29.80;;;;;;5110822;28;20027;-57
2023/06/02 09:02:34;;;;;;;2.42;1.90;;;20.30;28.10;;;;;;5090797;28;20047;-56
2023/06/02 09:05:02;;;;;;;2.53;2.15;;;20.60;32.30;;;;;;5096481;28;20488;-55
2023/06/02 09:07:28;;;;;;;3.33;2.20;;;21.10;31.60;;;;;;5096854;28;20122;-56
2023/06/02 09:09:55;;;;;;;3.15;2.20;;;21.00;30.00;;;;;;5090247;28;20489;-56
2023/06/02 09:12:21;;;;;;;2.42;2.05;;;21.00;30.40;;;;;;5107548;28;20019;-54
2023/06/02 09:14:48;;;;;;;3.97;1.92;;;21.10;29.70;;;;;;5110174;28;20108;-54
2023/06/02 09:17:30;;;;;;;4.25;1.77;;;21.00;29.90;;;;;;5094797;28;20084;-56
2023/06/02 09:20:11;;;;;;;12.57;2.15;;;20.80;25.20;;;;;;5089962;28;20025;-56
2023/06/02 09:23:01;;;;;;;2.95;1.85;;;20.20;21.50;;;;;;5087228;28;20023;-56
2023/06/02 09:25:28;;;;;;;2.13;1.50;;;19.50;22.10;;;;;;5069488;28;20017;-54
2023/06/02 09:27:56;;;;;;;3.13;1.65;;;19.60;25.90;;;;;;5099911;28;20031;-57
2023/06/02 09:30:21;;;;;;;3.50;1.70;;;19.80;26.40;;;;;;5109623;28;20179;-56
2023/06/02 09:33:17;;;;;;;1.58;1.40;;;20.00;26.00;;;;;;5087950;28;20137;-55
2023/06/02 09:35:45;;;;;;;4.03;1.40;;;20.50;25.40;;;;;;5068987;28;20392;-53
2023/06/02 09:38:13;;;;;;;2.58;1.75;;;20.50;20.70;;;;;;5092413;28;20032;-56
2023/06/02 09:40:40;;;;;;;2.25;1.15;;;20.20;20.70;;;;;;5109086;28;20067;-52
2023/06/02 09:43:08;;;;;;;2.88;1.50;;;19.90;21.00;;;;;;5087640;28;20376;-57
2023/06/02 09:46:00;;;;;;;3.70;1.80;;;19.80;21.80;;;;;;5109488;28;20024;-56
2023/06/02 09:48:29;;;;;;;2.28;1.20;;;20.20;21.40;;;;;;5083823;28;20047;-55
2023/06/02 09:50:55;;;;;;;1.95;0.90;;;20.50;20.80;;;;;;5109255;28;20558;-58
2023/06/02 09:53:22;;;;;;;1.10;1.00;;;21.20;20.50;;;;;;5087488;28;20515;-55
2023/06/02 09:55:50;;;;;;;4.72;1.30;;;21.60;16.80;;;;;;5108246;28;20035;-56
2023/06/02 09:58:18;;;;;;;2.05;1.25;;;21.50;16.50;;;;;;5087695;28;20046;-55
2023/06/02 10:00:43;;;;;;;7.03;1.95;;;21.80;15.90;;;;;;5108777;28;20031;-55
2023/06/02 10:03:09;;;;;;;1.95;1.42;;;21.30;13.80;;;;;;5087486;28;20032;-54
2023/06/02 10:05:37;;;;;;;2.05;1.10;;;21.20;14.00;;;;;;5095909;28;20027;-57
2023/06/02 10:08:27;;;;;;;1.98;1.40;;;21.30;13.20;;;;;;5091819;28;20042;-54
2023/06/02 10:11:13;;;;;;;3.78;1.50;;;21.30;11.70;;;;;;5108376;28;20054;-52
2023/06/02 10:14:10;;;;;;;3.05;1.40;;;20.80;12.60;;;;;;5085412;28;20060;-55
2023/06/02 10:17:08;;;;;;;8.43;1.77;;;20.90;12.10;;;;;;5069481;28;20519;-54
2023/06/02 10:19:53;;;;;;;2.47;1.40;;;20.60;12.70;;;;;;5109068;28;20119;-56
2023/06/02 10:22:48;;;;;;;4.35;1.65;;;20.40;12.90;;;;;;5079825;28;20034;-54
2023/06/02 10:25:39;;;;;;;2.25;1.20;;;20.30;12.70;;;;;;5068670;28;20035;-55
2023/06/02 10:28:08;;;;;;;2.50;1.25;;;20.60;12.30;;;;;;5086839;28;20138;-54
2023/06/02 10:30:35;;;;;;;3.03;1.50;;;20.70;13.00;;;;;;5109208;28;20203;-56
2023/06/02 10:33:00;;;;;;;2.85;1.15;;;20.70;13.20;;;;;;5086626;28;20043;-57
2023/06/02 10:35:57;;;;;;;5.65;1.10;;;20.70;13.20;;;;;;5108241;28;20122;-57
2023/06/02 10:38:33;;;;;;;5.95;1.13;;;20.70;12.60;;;;;;5082663;28;20449;-57
2023/06/02 10:40:59;;;;;;;;;;;20.70;12.90;;;;;;5106892;28;20028;-54
2023/06/02 10:43:24;;;;;;;1.80;1.20;;;20.80;12.90;;;;;;5109159;28;20363;-55
2023/06/02 10:45:50;;;;;;;2.42;1.50;;;20.60;12.10;;;;;;5085913;28;20507;-56
2023/06/02 10:48:38;;;;;;;3.78;1.48;;;20.30;12.80;;;;;;5088692;28;20480;-56
2023/06/02 10:51:07;;;;;;;2.58;1.20;;;20.20;12.30;;;;;;5070463;28;20036;-57
2023/06/02 10:53:33;;;;;;;5.95;1.52;;;19.90;12.80;;;;;;5083518;28;20066;-55
2023/06/02 10:56:35;;;;;;;4.38;1.20;;;20.00;13.20;;;;;;5085992;28;20519;-54
2023/06/02 10:59:02;;;;;;;2.60;1.25;;;19.90;13.50;;;;;;5097485;28;20518;-56
2023/06/02 11:01:46;;;;;;;2.65;1.10;;;19.70;13.80;;;;;;5087364;28;20438;-52
2023/06/02 11:04:28;;;;;;;3.10;1.40;;;19.40;12.70;;;;;;5105213;28;20031;-56
2023/06/02 11:07:29;;;;;;;2.20;1.33;;;19.10;14.00;;;;;;5080150;28;20028;-57
2023/06/02 11:09:58;;;;;;;3.95;1.35;;;18.90;14.40;;;;;;5046138;28;20037;-57
2023/06/02 11:12:51;;;;;;;1.48;1.00;;;18.90;14.00;;;;;;5082995;28;20061;-57
2023/06/02 11:15:20;;;;;;;3.28;1.70;;;19.10;13.90;;;;;;5091100;28;20414;-54
2023/06/02 11:17:49;;;;;;;5.68;1.50;;;18.80;13.70;;;;;;5110563;28;20016;-55
2023/06/02 11:20:17;;;;;;;2.47;1.40;;;18.80;14.30;;;;;;5092415;28;20069;-54
2023/06/02 11:22:43;;;;;;;2.45;1.00;;;18.80;13.70;;;;;;5092427;28;20032;-56
2023/06/02 11:25:14;;;;;;;3.08;1.30;;;18.70;12.70;;;;;;5090209;28;20028;-55
2023/06/02 11:27:44;;;;;;;3.88;1.50;;;18.60;12.20;;;;;;5107577;28;20035;-56
2023/06/02 11:30:13;;;;;;;2.45;1.08;;;18.40;12.80;;;;;;5095675;28;20032;-56
2023/06/02 11:32:38;;;;;;;1.75;1.10;;;18.50;13.00;;;;;;5090583;28;20492;-57
2023/06/02 11:35:07;;;;;;;3.17;1.30;;;18.60;13.40;;;;;;5108667;28;20031;-54
2023/06/02 11:37:34;;;;;;;1.50;0.73;;;18.60;13.20;;;;;;5091201;28;20096;-56
2023/06/02 11:39:59;;;;;;;3.25;1.08;;;18.50;13.00;;;;;;5095123;28;20035;-57
2023/06/02 11:42:37;;;;;;;2.13;1.00;;;18.60;13.60;;;;;;5097717;28;20039;-54
2023/06/02 11:45:05;;;;;;;4.97;1.25;;;18.60;12.70;;;;;;5110870;28;20016;-55
2023/06/02 11:47:31;;;;;;;2.40;1.15;;;18.60;12.50;;;;;;5087728;28;20478;-57
2023/06/02 11:49:56;;;;;;;3.35;1.20;;;18.60;12.70;;;;;;5090145;28;20032;-56
2023/06/02 11:52:22;;;;;;;3.95;1.10;;;18.60;11.20;;;;;;5103831;28;20066;-55
2023/06/02 11:54:51;;;;;;;2.40;1.00;;;18.50;10.70;;;;;;5088678;28;20054;-56
2023/06/02 11:57:29;;;;;;;3.30;1.33;;;18.30;10.80;;;;;;5110050;28;20376;-55
2023/06/02 12:00:21;;;;;;;1.85;1.20;;;18.40;10.90;;;;;;5088761;28;20020;-55
2023/06/02 12:02:51;;;;;;;2.67;1.10;;;18.40;11.80;;;;;;5096485;28;20611;-56
2023/06/02 12:05:33;;;;;;;3.38;1.35;;;18.20;9.60;;;;;;5088287;28;20031;-56
2023/06/02 12:08:24;;;;;;;1.83;1.08;;;18.10;9.10;;;;;;5082793;28;20024;-57
2023/06/02 12:10:50;;;;;;;2.97;1.45;;;18.10;10.40;;;;;;5104097;28;20024;-55
2023/06/02 12:13:30;;;;;;;1.92;1.20;;;18.20;9.70;;;;;;5088219;28;20474;-54
2023/06/02 12:16:16;;;;;;;5.65;1.05;;;18.40;9.30;;;;;;5090227;28;20017;-54
2023/06/02 12:18:41;;;;;;;2.67;1.05;;;18.40;7.90;;;;;;5081207;28;20070;-55
2023/06/02 12:21:25;;;;;;;2.90;1.05;;;18.50;7.90;;;;;;5109830;28;20024;-55
2023/06/02 12:23:51;;;;;;;6.22;1.02;;;18.50;7.70;;;;;;5082649;28;20021;-52
2023/06/02 12:26:16;;;;;;;3.65;1.30;;;18.50;8.10;;;;;;5101326;28;20510;-56
2023/06/02 12:28:42;;;;;;;3.72;1.10;;;18.70;7.80;;;;;;5098081;28;20047;-52
2023/06/02 12:31:08;;;;;;;4.78;1.10;;;18.50;6.50;;;;;;5097293;28;20036;-55
2023/06/02 12:33:34;;;;;;;7.97;1.23;;;18.40;7.20;;;;;;5109420;28;20602;-56
2023/06/02 12:36:00;;;;;;;1.45;0.80;;;18.40;7.00;;;;;;5088683;28;20162;-57
2023/06/02 12:38:27;;;;;;;3.20;1.05;;;18.40;7.20;;;;;;5095442;28;20539;-55
2023/06/02 12:40:52;;;;;;;1.42;0.80;;;18.50;6.70;;;;;;5109658;28;20069;-56
2023/06/02 12:43:19;;;;;;;1.25;0.80;;;18.60;7.30;;;;;;5088505;28;20063;-57
2023/06/02 12:45:47;;;;;;;2.08;1.02;;;18.60;5.80;;;;;;5103955;28;20103;-53
2023/06/02 12:48:13;;;;;;;3.03;0.95;;;18.40;5.80;;;;;;5086176;28;20028;-55
2023/06/02 12:50:39;;;;;;;1.50;0.90;;;18.40;5.80;;;;;;5090065;28;20082;-57
2023/06/02 12:53:05;;;;;;;3.22;1.02;;;18.50;4.00;;;;;;5109414;28;20636;-57
2023/06/02 12:55:30;;;;;;;2.38;0.90;;;18.40;4.00;;;;;;5088497;28;20044;-57
2023/06/02 12:57:56;;;;;;;3.67;0.82;;;18.30;4.10;;;;;;5109939;28;20031;-57
2023/06/02 13:00:22;;;;;;;2.83;0.93;;;18.20;2.90;;;;;;5089470;28;20027;-56